Time;durP1;ratioP1;P1;durP2;ratioP2;P2;SDS_P1;SDS_P2;PMS_P1;PMS_P2;Temp;Humidity;BMP_temperature;BMP_pressure;BME280_temperature;BME280_humidity;BME280_pressure;Samples;Min_cycle;Max_cycle;Signal;HPM_P1;HPM_P2
2023/04/24 00:01:59;;;;;;;14.57;5.20;;;;;;;17.04;27.35;99318.59;5038806;28;20052;-66
2023/04/24 00:04:25;;;;;;;15.13;5.65;;;;;;;16.99;27.30;99321.91;5022133;28;20494;-66
2023/04/24 00:06:56;;;;;;;8.93;5.30;;;;;;;16.98;27.39;99325.63;5022641;28;20045;-66
2023/04/24 00:09:24;;;;;;;9.73;4.95;;;;;;;16.99;27.45;99321.91;5023189;28;20044;-67
2023/04/24 00:11:50;;;;;;;15.85;5.75;;;;;;;16.93;27.67;99322.72;4989788;28;20052;-66
2023/04/24 00:14:17;;;;;;;8.25;4.80;;;;;;;16.87;27.61;99328.09;5018997;28;20048;-66
2023/04/24 00:16:43;;;;;;;13.73;5.57;;;;;;;16.79;27.79;99318.38;5002760;28;20059;-66
2023/04/24 00:19:09;;;;;;;24.25;6.22;;;;;;;16.76;27.93;99326.84;4983371;28;20056;-67
2023/04/24 00:21:37;;;;;;;20.83;6.18;;;;;;;16.75;28.08;99327.88;5017048;28;20059;-67
2023/04/24 00:24:03;;;;;;;20.08;6.47;;;;;;;16.67;28.18;99320.84;5002605;28;20052;-67
2023/04/24 00:26:30;;;;;;;12.95;5.90;;;;;;;16.59;28.24;99321.03;5002837;28;20099;-66
2023/04/24 00:28:57;;;;;;;13.43;5.68;;;;;;;16.49;28.46;99319.78;5015235;28;20407;-66
2023/04/24 00:31:24;;;;;;;11.75;5.25;;;;;;;16.41;28.61;99326.13;4995296;28;20566;-66
2023/04/24 00:33:49;;;;;;;16.52;5.20;;;;;;;16.35;28.82;99334.16;4979863;28;20065;-67
2023/04/24 00:36:16;;;;;;;10.63;5.22;;;;;;;16.26;28.72;99320.13;4999295;28;20119;-66
2023/04/24 00:38:42;;;;;;;14.45;6.10;;;;;;;16.21;28.95;99325.25;4998692;28;20057;-66
2023/04/24 00:41:08;;;;;;;14.93;5.63;;;;;;;16.15;29.00;99322.56;4998569;28;20548;-67
2023/04/24 00:43:34;;;;;;;17.73;6.05;;;;;;;16.10;29.16;99327.69;4998418;28;20423;-69
2023/04/24 00:46:01;;;;;;;15.45;5.75;;;;;;;16.11;29.22;99326.66;5014730;28;20085;-66
2023/04/24 00:48:27;;;;;;;14.23;6.32;;;;;;;16.13;29.26;99328.09;5002043;28;20053;-66
2023/04/24 00:50:53;;;;;;;17.38;6.53;;;;;;;16.05;29.26;99325.59;5001865;28;20126;-67
2023/04/24 00:53:19;;;;;;;14.43;5.25;;;;;;;16.08;29.24;99322.53;5001877;28;20045;-69
2023/04/24 00:55:45;;;;;;;20.92;6.18;;;;;;;16.13;29.22;99321.94;5002020;28;20049;-66
2023/04/24 00:58:13;;;;;;;15.75;6.28;;;;;;;16.12;29.27;99321.09;5001800;28;20083;-67
2023/04/24 01:00:39;;;;;;;16.88;6.15;;;;;;;16.08;29.15;99325.19;5017257;28;20449;-66
2023/04/24 01:03:05;;;;;;;14.32;6.43;;;;;;;16.11;29.13;99319.47;5034259;28;20188;-66
2023/04/24 01:05:34;;;;;;;15.20;6.95;;;;;;;16.07;29.11;99326.22;5037537;28;20052;-66
2023/04/24 01:08:01;;;;;;;17.92;7.28;;;;;;;16.17;28.76;99318.66;5004341;28;20590;-66
2023/04/24 01:10:27;;;;;;;12.18;7.72;;;;;;;16.12;28.41;99336.34;5037377;28;20091;-66
2023/04/24 01:12:53;;;;;;;15.00;7.22;;;;;;;16.16;27.91;99311.63;5004754;28;20040;-66
2023/04/24 01:15:22;;;;;;;11.10;7.10;;;;;;;16.39;27.73;99336.22;5037475;28;20521;-67
2023/04/24 01:17:48;;;;;;;14.35;7.15;;;;;;;16.49;27.65;99328.69;5037347;28;20071;-66
2023/04/24 01:20:15;;;;;;;17.85;7.22;;;;;;;16.49;27.80;99323.31;5037316;28;20105;-66
2023/04/24 01:22:41;;;;;;;17.10;7.93;;;;;;;16.51;27.95;99323.91;5021201;28;20599;-66
2023/04/24 01:25:09;;;;;;;12.57;6.72;;;;;;;16.49;28.08;99314.44;5020851;28;20056;-66
2023/04/24 01:27:35;;;;;;;19.35;7.65;;;;;;;16.34;28.27;99319.94;5004747;28;20044;-66
2023/04/24 01:30:01;;;;;;;15.80;7.40;;;;;;;16.34;28.40;99305.72;5020715;28;20441;-67
2023/04/24 01:32:31;;;;;;;;;;;;;;;16.58;28.28;99311.38;5002767;28;20049;-67
2023/04/24 01:34:58;;;;;;;16.30;6.93;;;;;;;16.28;28.48;99307.34;5001099;28;19916;-66
2023/04/24 01:37:24;;;;;;;19.15;7.57;;;;;;;16.17;28.72;99307.09;5029054;28;20134;-66
2023/04/24 01:39:50;;;;;;;13.57;7.38;;;;;;;16.07;28.78;99310.16;4985003;28;20056;-66
2023/04/24 01:42:19;;;;;;;15.55;7.75;;;;;;;16.09;29.08;99310.78;5001499;28;20586;-66
2023/04/24 01:44:47;;;;;;;16.23;8.30;;;;;;;16.12;28.74;99310.41;5001078;28;20082;-66
2023/04/24 01:47:13;;;;;;;16.50;8.38;;;;;;;16.14;28.68;99307.50;4984404;28;20403;-66
2023/04/24 01:49:39;;;;;;;17.13;8.30;;;;;;;16.12;28.62;99305.03;5017360;28;20059;-66
2023/04/24 01:52:05;;;;;;;12.65;7.50;;;;;;;16.17;28.55;99307.09;5000747;28;20099;-66
2023/04/24 01:54:31;;;;;;;13.35;7.05;;;;;;;16.07;28.49;99310.16;4984606;28;20041;-66
2023/04/24 01:56:58;;;;;;;13.27;7.03;;;;;;;16.06;29.06;99308.53;5033426;28;20502;-66
2023/04/24 01:59:25;;;;;;;21.30;7.28;;;;;;;16.06;29.03;99295.13;5000773;28;20052;-66
2023/04/24 02:01:51;;;;;;;18.05;7.30;;;;;;;15.92;29.18;99304.13;4984729;28;20079;-66
2023/04/24 02:04:18;;;;;;;17.25;7.97;;;;;;;15.93;29.43;99307.66;5017646;28;20491;-66
2023/04/24 02:06:44;;;;;;;15.93;7.93;;;;;;;15.86;29.17;99306.78;5003943;28;20071;-66
2023/04/24 02:09:10;;;;;;;14.23;7.90;;;;;;;15.83;29.25;99313.38;4981034;28;20057;-66
2023/04/24 02:11:36;;;;;;;13.88;7.32;;;;;;;15.84;29.31;99304.31;4981093;28;20453;-66
2023/04/24 02:14:02;;;;;;;15.32;7.35;;;;;;;15.79;29.30;99311.28;5020335;28;20129;-66
2023/04/24 02:16:35;;;;;;;15.10;7.60;;;;;;;15.82;29.38;99313.56;5019931;28;20474;-66
2023/04/24 02:19:02;;;;;;;15.77;7.53;;;;;;;15.84;29.59;99309.66;5020326;28;20056;-66
2023/04/24 02:21:28;;;;;;;10.80;7.78;;;;;;;15.75;29.68;99313.53;5016481;28;20060;-66
2023/04/24 02:23:54;;;;;;;15.02;8.15;;;;;;;15.73;29.68;99309.41;5033027;28;20057;-68
2023/04/24 02:26:20;;;;;;;22.67;9.55;;;;;;;15.73;29.52;99314.78;5017096;28;20126;-66
2023/04/24 02:28:47;;;;;;;17.23;9.27;;;;;;;15.71;29.62;99319.50;5016788;28;20088;-66
2023/04/24 02:31:15;;;;;;;17.17;8.27;;;;;;;15.64;29.52;99311.41;5000894;28;20448;-65
2023/04/24 02:33:42;;;;;;;14.25;7.68;;;;;;;15.62;29.88;99316.13;5016669;28;20080;-67
2023/04/24 02:36:08;;;;;;;15.75;8.07;;;;;;;15.54;30.03;99315.47;5016607;28;20056;-67
2023/04/24 02:38:34;;;;;;;15.95;8.25;;;;;;;15.52;30.07;99326.38;5016442;28;20041;-67
2023/04/24 02:41:01;;;;;;;15.88;8.15;;;;;;;15.56;29.95;99324.94;5050188;28;20067;-66
2023/04/24 02:43:28;;;;;;;15.73;8.30;;;;;;;15.55;30.06;99325.97;5023253;28;20040;-67
2023/04/24 02:45:54;;;;;;;14.95;8.15;;;;;;;15.50;30.33;99333.78;5040171;28;20465;-66
2023/04/24 02:48:20;;;;;;;14.27;8.57;;;;;;;15.52;30.25;99329.06;5039886;28;20036;-66
2023/04/24 02:50:47;;;;;;;20.25;9.43;;;;;;;15.54;29.96;99320.81;5023306;28;20135;-66
2023/04/24 02:53:13;;;;;;;16.70;9.07;;;;;;;15.58;29.98;99328.25;5036952;28;20052;-66
2023/04/24 02:55:42;;;;;;;17.27;9.13;;;;;;;15.65;29.86;99333.66;5051989;28;20118;-66
2023/04/24 02:58:08;;;;;;;14.82;9.50;;;;;;;15.67;29.64;99343.16;5003096;28;20458;-67
2023/04/24 03:00:34;;;;;;;18.33;9.90;;;;;;;15.67;29.76;99345.81;5012052;28;20079;-67
2023/04/24 03:03:00;;;;;;;21.80;9.55;;;;;;;15.69;29.77;99349.13;4979138;28;20049;-66
2023/04/24 03:05:27;;;;;;;18.15;9.23;;;;;;;15.77;29.76;99338.28;4995963;28;20149;-70
2023/04/24 03:07:53;;;;;;;19.73;9.10;;;;;;;15.81;29.66;99341.34;4964078;28;20044;-67
2023/04/24 03:10:22;;;;;;;24.00;9.82;;;;;;;15.80;29.73;99350.44;4996689;28;20446;-67
2023/04/24 03:12:51;;;;;;;20.92;9.65;;;;;;;15.92;29.81;99347.00;4964732;28;20049;-67
2023/04/24 03:15:18;;;;;;;16.95;9.50;;;;;;;15.83;29.34;99345.50;5013141;28;20053;-67
2023/04/24 03:17:44;;;;;;;16.67;9.45;;;;;;;15.75;29.69;99342.16;4964218;28;20384;-65
2023/04/24 03:20:11;;;;;;;19.95;10.05;;;;;;;15.84;29.96;99349.81;4996120;28;20061;-67
2023/04/24 03:22:37;;;;;;;19.98;9.80;;;;;;;15.70;29.77;99348.09;4957577;28;20042;-68
2023/04/24 03:25:08;;;;;;;22.45;9.85;;;;;;;15.85;29.73;99351.47;4992255;28;20084;-69
2023/04/24 03:27:35;;;;;;;17.63;9.57;;;;;;;15.91;29.55;99356.06;4994574;28;20100;-68
2023/04/24 03:30:12;;;;;;;21.35;10.07;;;;;;;15.96;29.36;99350.91;5010520;28;20050;-69
2023/04/24 03:32:46;;;;;;;18.55;10.68;;;;;;;16.04;29.16;99356.09;4996361;28;20045;-67
2023/04/24 03:35:17;;;;;;;18.27;10.13;;;;;;;16.07;29.01;99354.88;4980844;28;20483;-66
2023/04/24 03:37:43;;;;;;;19.40;9.98;;;;;;;16.09;29.16;99355.50;5020341;28;20073;-66
2023/04/24 03:40:29;;;;;;;22.02;9.80;;;;;;;16.09;29.16;99352.81;5008969;28;20075;-68
2023/04/24 03:42:57;;;;;;;20.20;10.52;;;;;;;16.07;29.21;99353.03;5020823;28;20514;-66
2023/04/24 03:45:25;;;;;;;18.25;10.43;;;;;;;16.08;29.15;99352.00;5014692;28;20049;-68
2023/04/24 03:47:51;;;;;;;19.55;9.60;;;;;;;16.13;29.01;99348.75;4998321;28;20053;-67
2023/04/24 03:50:23;;;;;;;21.08;9.02;;;;;;;16.25;28.85;99352.50;4983928;28;20060;-69
2023/04/24 03:52:51;;;;;;;18.73;8.95;;;;;;;16.13;28.93;99365.63;4999256;28;20045;-65
2023/04/24 03:55:29;;;;;;;16.90;9.20;;;;;;;16.09;28.93;99367.06;5010379;28;20598;-69
2023/04/24 03:57:55;;;;;;;14.75;9.20;;;;;;;16.05;29.47;99373.81;5006531;28;20067;-68
2023/04/24 04:00:22;;;;;;;16.98;8.82;;;;;;;15.95;29.23;99378.72;5042108;28;20085;-69
2023/04/24 04:02:57;;;;;;;16.95;7.93;;;;;;;15.77;29.98;99374.91;5043298;28;20132;-68
2023/04/24 04:05:24;;;;;;;15.20;8.30;;;;;;;15.81;30.20;99385.03;5042374;28;20048;-67
2023/04/24 04:07:50;;;;;;;13.85;8.45;;;;;;;15.73;30.14;99382.50;5044167;28;20056;-69
2023/04/24 04:10:17;;;;;;;15.40;9.10;;;;;;;15.58;30.92;99386.31;5039701;28;20058;-70
2023/04/24 04:12:43;;;;;;;17.50;7.90;;;;;;;15.43;31.08;99381.09;5025256;28;20047;-69
2023/04/24 04:15:09;;;;;;;16.90;8.18;;;;;;;15.47;31.40;99376.19;5025844;28;20036;-69
2023/04/24 04:17:37;;;;;;;17.75;8.27;;;;;;;15.42;31.18;99387.47;5059871;28;20046;-68
2023/04/24 04:20:09;;;;;;;17.48;8.15;;;;;;;15.48;31.10;99378.66;5044012;28;20046;-68
2023/04/24 04:22:37;;;;;;;14.32;7.75;;;;;;;15.53;30.66;99389.59;5060544;28;20390;-68
2023/04/24 04:25:06;;;;;;;21.83;7.43;;;;;;;15.69;30.50;99388.47;5044176;28;20062;-68
2023/04/24 04:27:32;;;;;;;17.88;7.47;;;;;;;15.71;30.25;99381.06;5059553;28;20036;-67
2023/04/24 04:30:05;;;;;;;15.20;7.38;;;;;;;15.81;30.38;99390.41;5061277;28;20058;-68
2023/04/24 04:32:38;;;;;;;21.05;7.80;;;;;;;15.74;30.34;99389.53;5060431;28;20481;-68
2023/04/24 04:35:04;;;;;;;19.23;8.70;;;;;;;15.91;30.12;99393.56;5059293;28;20050;-68
2023/04/24 04:37:33;;;;;;;24.20;8.98;;;;;;;15.96;30.71;99380.38;5059701;28;20044;-68
2023/04/24 04:40:11;;;;;;;19.73;9.10;;;;;;;16.00;30.72;99389.69;5045761;28;20117;-68
2023/04/24 04:42:47;;;;;;;25.33;10.20;;;;;;;16.05;30.81;99389.09;5060616;28;20131;-68
2023/04/24 04:45:16;;;;;;;25.38;9.07;;;;;;;16.06;30.91;99394.25;5043025;28;20105;-67
2023/04/24 04:48:02;;;;;;;23.33;9.00;;;;;;;16.14;31.18;99393.25;5061631;28;20040;-72
2023/04/24 04:50:29;;;;;;;23.63;8.85;;;;;;;16.21;30.99;99400.28;5076568;28;20118;-67
2023/04/24 04:53:01;;;;;;;23.60;8.48;;;;;;;16.27;31.13;99394.13;5042344;28;20058;-68
2023/04/24 04:55:32;;;;;;;28.08;8.88;;;;;;;16.31;31.20;99390.00;5059765;28;20043;-71
2023/04/24 04:58:18;;;;;;;35.63;8.77;;;;;;;16.48;31.62;99401.25;5061545;28;20089;-68
2023/04/24 05:00:46;;;;;;;18.55;7.05;;;;;;;16.49;30.46;99398.38;5057808;28;20072;-68
2023/04/24 05:03:26;;;;;;;16.83;7.10;;;;;;;16.67;30.52;99401.31;5046691;28;20040;-67
2023/04/24 05:06:03;;;;;;;16.90;8.02;;;;;;;16.75;30.59;99403.81;5075504;28;20555;-70
2023/04/24 05:08:32;;;;;;;21.75;7.63;;;;;;;16.82;30.57;99399.28;5059403;28;20040;-67
2023/04/24 05:10:59;;;;;;;19.75;9.15;;;;;;;16.90;31.03;99405.50;5058929;28;20427;-67
2023/04/24 05:13:27;;;;;;;24.13;7.63;;;;;;;16.90;31.04;99405.50;5043079;28;20044;-67
2023/04/24 05:15:53;;;;;;;19.35;8.15;;;;;;;17.03;31.24;99405.50;5042228;28;20074;-67
2023/04/24 05:18:20;;;;;;;25.65;7.70;;;;;;;17.17;31.12;99404.47;5092135;28;20061;-67
2023/04/24 05:20:47;;;;;;;19.77;7.40;;;;;;;17.43;31.17;99401.78;5058530;28;20138;-67
2023/04/24 05:23:13;;;;;;;20.90;7.30;;;;;;;17.52;30.76;99406.78;5058693;28;20047;-67
2023/04/24 05:25:42;;;;;;;26.17;7.28;;;;;;;17.72;30.28;99409.44;5042658;28;20090;-67
2023/04/24 05:28:11;;;;;;;28.55;8.00;;;;;;;17.80;30.18;99410.06;5075575;28;20036;-67
2023/04/24 05:30:38;;;;;;;12.48;6.13;;;;;;;17.87;29.90;99410.03;5058590;28;20048;-67
2023/04/24 05:33:03;;;;;;;15.45;6.82;;;;;;;17.97;29.59;99422.00;5075514;28;20131;-67
2023/04/24 05:35:33;;;;;;;35.03;6.90;;;;;;;18.11;29.35;99417.41;5075914;28;20131;-67
2023/04/24 05:38:00;;;;;;;27.10;7.40;;;;;;;18.14;29.39;99415.13;5075481;28;20048;-68
2023/04/24 05:40:26;;;;;;;21.42;7.50;;;;;;;18.37;29.32;99409.25;5041914;28;20042;-67
2023/04/24 05:42:52;;;;;;;19.40;6.97;;;;;;;18.37;28.94;99418.16;5058426;28;20059;-67
2023/04/24 05:45:20;;;;;;;13.75;6.35;;;;;;;18.49;28.91;99404.91;5058509;28;20105;-68
2023/04/24 05:47:46;;;;;;;17.40;6.10;;;;;;;18.62;28.77;99409.38;5058254;28;20390;-67
2023/04/24 05:50:13;;;;;;;16.65;6.80;;;;;;;18.76;28.48;99406.38;5058087;28;20040;-67
2023/04/24 05:52:39;;;;;;;20.25;6.55;;;;;;;18.86;28.45;99405.94;5057518;28;20055;-67
2023/04/24 05:55:18;;;;;;;17.55;6.38;;;;;;;18.98;28.27;99404.19;5059810;28;20054;-67
2023/04/24 05:57:45;;;;;;;24.77;6.32;;;;;;;19.17;28.10;99408.63;5074982;28;20044;-67
2023/04/24 06:00:12;;;;;;;14.65;6.03;;;;;;;19.33;27.78;99400.84;5041068;28;20040;-67
2023/04/24 06:02:46;;;;;;;18.90;5.75;;;;;;;19.47;27.77;99413.16;5043456;28;20378;-68
2023/04/24 06:05:14;;;;;;;29.17;7.13;;;;;;;19.65;27.77;99410.50;5041743;28;20062;-68
2023/04/24 06:07:41;;;;;;;18.67;6.45;;;;;;;19.82;27.58;99403.50;5041137;28;20105;-68
2023/04/24 06:10:08;;;;;;;37.97;7.72;;;;;;;20.07;27.79;99406.97;5057795;28;20161;-68
2023/04/24 06:12:40;;;;;;;18.38;6.95;;;;;;;20.32;27.51;99411.47;5074236;28;20050;-67
2023/04/24 06:15:12;;;;;;;24.85;6.88;;;;;;;20.53;27.43;99414.53;5058469;28;20051;-68
2023/04/24 06:18:12;;;;;;;23.48;6.97;;;;;;;20.73;26.28;99408.88;5021267;28;20049;-67
2023/04/24 06:20:39;;;;;;;14.63;5.40;;;;;;;20.88;25.77;99412.00;5000995;28;20495;-68
2023/04/24 06:23:08;;;;;;;13.57;5.90;;;;;;;21.03;25.58;99407.03;5017177;28;20556;-69
2023/04/24 06:25:34;;;;;;;12.88;5.85;;;;;;;21.36;25.37;99412.72;5017454;28;20057;-67
2023/04/24 06:28:02;;;;;;;15.38;5.07;;;;;;;21.47;24.92;99420.03;5045243;28;20055;-67
2023/04/24 06:30:29;;;;;;;14.57;5.28;;;;;;;21.66;24.94;99425.09;5041791;28;20101;-68
2023/04/24 06:32:55;;;;;;;12.05;5.70;;;;;;;21.82;24.61;99412.00;5040895;28;20040;-67
2023/04/24 06:35:22;;;;;;;14.75;5.25;;;;;;;21.88;24.27;99416.44;5074168;28;20052;-68
2023/04/24 06:37:48;;;;;;;14.38;5.15;;;;;;;21.94;24.04;99412.81;5057481;28;20073;-68
2023/04/24 06:40:18;;;;;;;17.50;4.85;;;;;;;22.20;23.42;99420.41;5040900;28;20051;-67
2023/04/24 06:42:46;;;;;;;12.30;5.10;;;;;;;22.33;23.70;99420.97;5042155;28;20050;-67
2023/04/24 06:45:12;;;;;;;18.02;5.53;;;;;;;22.66;23.69;99417.63;5057459;28;20126;-68
2023/04/24 06:47:38;;;;;;;16.90;5.03;;;;;;;22.82;23.14;99431.19;5058011;28;20055;-68
2023/04/24 06:50:06;;;;;;;13.57;4.60;;;;;;;22.90;22.39;99430.81;5057704;28;20375;-67
2023/04/24 06:52:32;;;;;;;18.50;4.85;;;;;;;22.97;22.07;99428.78;5040978;28;20478;-67
2023/04/24 06:55:05;;;;;;;24.23;4.82;;;;;;;23.37;21.73;99425.19;5057391;28;20484;-67
2023/04/24 06:57:32;;;;;;;17.80;4.97;;;;;;;23.37;21.37;99430.59;5057734;28;20052;-69
2023/04/24 06:59:58;;;;;;;9.32;3.72;;;;;;;23.48;20.58;99435.13;5057319;28;20040;-67
2023/04/24 07:02:24;;;;;;;14.50;4.25;;;;;;;23.54;20.48;99420.59;5040663;28;20040;-67
2023/04/24 07:04:51;;;;;;;8.90;4.30;;;;;;;23.69;20.52;99421.66;5057945;28;20066;-68
2023/04/24 07:07:16;;;;;;;11.95;4.53;;;;;;;23.73;20.39;99424.66;5044531;28;20036;-68
2023/04/24 07:09:44;;;;;;;8.32;4.20;;;;;;;24.05;20.05;99423.03;5077780;28;20127;-68
2023/04/24 07:12:10;;;;;;;14.68;4.20;;;;;;;24.16;19.60;99414.78;5061053;28;20040;-69
2023/04/24 07:14:39;;;;;;;8.27;3.60;;;;;;;24.59;18.36;99422.94;5061445;28;20043;-68
2023/04/24 07:17:06;;;;;;;8.30;3.53;;;;;;;24.74;18.30;99425.84;5078010;28;20048;-68
2023/04/24 07:19:35;;;;;;;9.25;3.80;;;;;;;25.08;17.74;99431.91;5043284;28;20059;-68
2023/04/24 07:22:02;;;;;;;9.20;3.42;;;;;;;25.53;17.17;99435.09;5043258;28;20052;-69
2023/04/24 07:24:28;;;;;;;7.38;3.25;;;;;;;26.60;15.74;99431.97;5043010;28;20063;-68
2023/04/24 07:26:55;;;;;;;12.20;3.50;;;;;;;28.37;14.44;99440.06;5043126;28;20036;-69
2023/04/24 07:29:20;;;;;;;7.68;3.92;;;;;;;30.47;13.01;99427.63;5042964;28;20055;-68
2023/04/24 07:31:47;;;;;;;15.50;4.05;;;;;;;32.21;11.50;99430.69;5043041;28;20048;-69
2023/04/24 07:34:13;;;;;;;7.18;3.55;;;;;;;33.72;10.28;99427.44;5043098;28;20054;-69
2023/04/24 07:36:39;;;;;;;18.05;3.97;;;;;;;35.65;8.93;99428.69;5043211;28;20040;-68
2023/04/24 07:39:05;;;;;;;11.32;3.33;;;;;;;36.01;8.04;99429.13;5043003;28;20059;-69
2023/04/24 07:41:32;;;;;;;4.78;3.13;;;;;;;35.86;7.90;99437.13;5059595;28;20512;-68
2023/04/24 07:43:58;;;;;;;7.63;3.78;;;;;;;35.67;8.28;99426.41;5059249;28;20093;-69
2023/04/24 07:46:24;;;;;;;20.02;3.97;;;;;;;35.81;8.17;99451.91;5042736;28;20491;-69
2023/04/24 07:48:50;;;;;;;11.05;3.60;;;;;;;34.53;8.47;99404.84;5042815;28;20040;-68
2023/04/24 07:51:16;;;;;;;6.38;3.50;;;;;;;34.27;8.97;99409.44;5023783;28;20080;-69
2023/04/24 07:53:43;;;;;;;8.95;3.72;;;;;;;34.86;8.16;99405.25;5040187;28;20125;-71
2023/04/24 07:56:09;;;;;;;12.32;4.47;;;;;;;37.40;7.33;99407.53;5040789;28;20455;-68
2023/04/24 07:58:35;;;;;;;14.35;3.67;;;;;;;39.63;6.02;99418.16;5024061;28;20433;-69
2023/04/24 08:01:01;;;;;;;5.60;3.55;;;;;;;41.25;5.45;99398.00;5040274;28;20040;-69
2023/04/24 08:03:28;;;;;;;7.70;3.40;;;;;;;42.92;4.55;99395.88;5024024;28;20039;-69
2023/04/24 08:05:53;;;;;;;10.80;3.60;;;;;;;43.26;4.37;99401.56;5039939;28;20036;-69
2023/04/24 08:08:23;;;;;;;8.20;3.22;;;;;;;42.26;4.74;99398.38;5040044;28;20044;-69
2023/04/24 08:10:50;;;;;;;2.97;2.55;;;;;;;43.58;4.07;99392.38;5040108;28;20131;-69
2023/04/24 08:13:16;;;;;;;4.60;2.90;;;;;;;43.46;3.51;99387.00;5039999;28;20048;-69
2023/04/24 08:15:42;;;;;;;6.30;3.38;;;;;;;44.21;3.60;99404.22;5023201;28;20117;-68
2023/04/24 08:18:08;;;;;;;7.45;3.35;;;;;;;43.46;3.83;99389.81;5028749;28;20449;-70
2023/04/24 08:20:35;;;;;;;5.75;3.15;;;;;;;44.35;3.42;99393.16;5059611;28;20036;-69
2023/04/24 08:23:01;;;;;;;6.90;3.20;;;;;;;44.03;3.67;99413.66;5093615;28;20066;-69
2023/04/24 08:25:27;;;;;;;4.90;3.33;;;;;;;42.71;3.83;99392.78;5076433;28;20040;-69
2023/04/24 08:27:54;;;;;;;6.15;3.47;;;;;;;41.68;4.46;99383.78;5055028;28;20148;-69
2023/04/24 08:30:20;;;;;;;8.85;3.75;;;;;;;41.36;4.51;99375.94;5038608;28;20426;-68
2023/04/24 08:32:46;;;;;;;14.43;3.20;;;;;;;43.20;4.21;99373.09;5038567;28;20068;-69
2023/04/24 08:35:12;;;;;;;7.70;3.13;;;;;;;45.82;3.07;99373.56;5022600;28;20036;-68
2023/04/24 08:37:38;;;;;;;9.38;3.53;;;;;;;46.27;2.35;99383.25;5038448;28;20060;-69
2023/04/24 08:40:10;;;;;;;8.48;3.38;;;;;;;45.92;2.86;99375.59;5038444;28;20040;-68
2023/04/24 08:42:37;;;;;;;9.23;3.40;;;;;;;44.75;3.22;99369.84;5005532;28;20053;-70
2023/04/24 08:45:03;;;;;;;12.48;6.93;;;;;;;45.72;3.36;99371.50;4982678;28;20072;-69
2023/04/24 08:47:31;;;;;;;7.90;3.45;;;;;;;45.01;2.88;99363.19;4999073;28;20068;-68
2023/04/24 08:49:58;;;;;;;8.73;3.28;;;;;;;45.53;3.06;99376.69;4982458;28;20081;-69
2023/04/24 08:52:25;;;;;;;5.63;3.40;;;;;;;43.97;3.54;99376.81;4982531;28;20084;-68
2023/04/24 08:54:52;;;;;;;9.10;3.30;;;;;;;42.78;3.93;99355.75;4982381;28;20049;-69
2023/04/24 08:57:18;;;;;;;11.60;3.70;;;;;;;42.77;3.76;99351.34;4966304;28;20495;-69
2023/04/24 08:59:44;;;;;;;7.22;3.25;;;;;;;43.54;3.60;99354.34;5009720;28;20146;-69
2023/04/24 09:02:11;;;;;;;13.55;3.75;;;;;;;42.77;3.80;99356.94;4982009;28;20055;-69
2023/04/24 09:04:37;;;;;;;9.63;3.55;;;;;;;42.64;3.87;99353.53;4982349;28;20053;-68
2023/04/24 09:07:06;;;;;;;10.60;3.20;;;;;;;42.55;3.62;99366.19;4939766;28;20054;-68
2023/04/24 09:09:32;;;;;;;16.38;3.50;;;;;;;42.95;3.59;99358.78;4940063;28;20485;-68
2023/04/24 09:11:58;;;;;;;6.40;3.50;;;;;;;42.04;3.89;99351.75;4898791;29;20059;-68
2023/04/24 09:14:31;;;;;;;5.65;3.47;;;;;;;41.03;4.35;99353.28;4914830;29;20048;-68
2023/04/24 09:16:58;;;;;;;6.95;3.40;;;;;;;40.69;4.14;99345.78;4917015;29;20087;-69
2023/04/24 09:19:24;;;;;;;7.10;3.28;;;;;;;40.05;4.84;99341.44;4920058;29;20135;-69
2023/04/24 09:21:52;;;;;;;8.80;3.53;;;;;;;39.89;4.70;99334.22;4935595;29;20051;-69
2023/04/24 09:24:22;;;;;;;6.15;3.45;;;;;;;39.58;4.78;99335.00;4936281;29;20105;-70
2023/04/24 09:27:04;;;;;;;8.38;3.60;;;;;;;39.38;4.86;99321.31;4967332;28;20141;-69
2023/04/24 09:29:32;;;;;;;5.75;3.30;;;;;;;40.86;4.50;99321.09;4936669;28;20542;-70
2023/04/24 09:31:59;;;;;;;10.90;3.55;;;;;;;43.75;3.53;99323.81;4974708;28;20054;-70
2023/04/24 09:34:26;;;;;;;3.83;2.83;;;;;;;45.19;2.84;99324.84;4974529;28;20080;-70
2023/04/24 09:36:52;;;;;;;10.10;3.78;;;;;;;43.68;3.15;99320.91;4975443;28;20058;-70
2023/04/24 09:39:22;;;;;;;5.43;3.20;;;;;;;42.16;3.91;99311.66;5016705;28;20033;-70
2023/04/24 09:41:50;;;;;;;5.82;3.22;;;;;;;41.99;4.08;99324.16;5017235;28;20041;-70
2023/04/24 09:44:24;;;;;;;12.00;3.20;;;;;;;40.95;4.19;99321.69;5000989;28;20045;-69
2023/04/24 09:46:53;;;;;;;6.40;3.17;;;;;;;40.33;4.52;99310.72;4984253;28;20052;-70
2023/04/24 09:49:26;;;;;;;4.63;3.50;;;;;;;41.34;4.35;99306.59;5042237;28;20493;-70
2023/04/24 09:52:06;;;;;;;7.30;3.25;;;;;;;43.33;3.42;99312.97;5040977;28;20036;-69
2023/04/24 09:54:33;;;;;;;;;;;;;;;45.15;2.95;99310.00;5041216;28;20050;-70
2023/04/24 09:57:00;;;;;;;10.60;2.85;;;;;;;45.84;2.61;99312.19;5057631;28;20068;-68
2023/04/24 09:59:26;;;;;;;8.98;2.60;;;;;;;45.51;2.51;99314.53;5057962;28;20040;-69
2023/04/24 10:01:52;;;;;;;8.73;3.25;;;;;;;44.80;2.90;99304.22;5057776;28;20059;-69
2023/04/24 10:04:27;;;;;;;6.43;2.97;;;;;;;45.11;2.87;99293.16;5058245;28;20130;-69
2023/04/24 10:06:55;;;;;;;9.98;2.70;;;;;;;42.88;3.21;99293.59;5091082;28;20044;-69
2023/04/24 10:09:26;;;;;;;6.93;2.78;;;;;;;40.13;3.96;99286.75;5041212;28;20136;-69
2023/04/24 10:11:54;;;;;;;12.18;3.22;;;;;;;39.71;4.78;99285.66;5058282;28;20119;-68
2023/04/24 10:14:23;;;;;;;5.15;3.00;;;;;;;41.22;3.96;99290.03;5033467;28;20514;-69
2023/04/24 10:16:52;;;;;;;5.60;2.75;;;;;;;41.95;4.00;99292.59;5000597;28;20082;-69
2023/04/24 10:19:20;;;;;;;9.87;2.70;;;;;;;41.81;4.00;99299.91;5000653;28;20045;-70
2023/04/24 10:21:48;;;;;;;9.05;2.45;;;;;;;40.94;4.08;99286.66;5017105;28;20417;-69
2023/04/24 10:24:15;;;;;;;7.80;2.85;;;;;;;40.83;3.84;99268.91;5000841;28;20055;-69
2023/04/24 10:26:42;;;;;;;7.88;2.60;;;;;;;41.31;4.00;99279.44;4984391;28;20068;-69
2023/04/24 10:29:12;;;;;;;6.65;2.90;;;;;;;41.38;4.05;99276.78;5016811;28;20111;-69
2023/04/24 10:31:39;;;;;;;6.47;2.80;;;;;;;41.15;3.87;99289.88;4984758;28;20541;-70
2023/04/24 10:34:07;;;;;;;6.82;2.75;;;;;;;41.48;3.53;99270.59;5000473;28;20060;-69
2023/04/24 10:36:34;;;;;;;7.55;2.50;;;;;;;43.16;3.16;99268.81;5000291;28;20056;-69
2023/04/24 10:39:03;;;;;;;4.70;2.63;;;;;;;44.44;2.91;99270.38;5018151;28;20135;-69
2023/04/24 10:41:31;;;;;;;6.33;2.77;;;;;;;45.04;2.55;99264.31;5004360;28;20072;-69
2023/04/24 10:44:09;;;;;;;8.02;2.20;;;;;;;43.95;2.57;99264.41;5004302;28;20487;-69
2023/04/24 10:46:37;;;;;;;5.63;2.35;;;;;;;42.67;3.06;99271.75;5037003;28;20549;-69
2023/04/24 10:49:08;;;;;;;8.38;2.83;;;;;;;42.01;3.62;99279.91;5037149;28;20049;-69
2023/04/24 10:51:48;;;;;;;6.70;2.92;;;;;;;40.47;3.84;99269.28;5020911;28;20053;-69
2023/04/24 10:54:40;;;;;;;3.70;2.42;;;;;;;39.01;4.45;99264.28;5020535;28;20111;-69
2023/04/24 10:57:22;;;;;;;9.23;2.60;;;;;;;36.35;5.49;99256.69;5036910;28;20147;-68
2023/04/24 10:59:51;;;;;;;6.60;2.75;;;;;;;33.86;6.71;99244.34;5020985;28;20049;-68
2023/04/24 11:02:18;;;;;;;6.05;2.88;;;;;;;33.86;7.04;99240.78;5020526;28;20122;-68
2023/04/24 11:04:46;;;;;;;3.78;2.65;;;;;;;35.84;6.10;99243.97;5004115;28;20075;-68
2023/04/24 11:07:12;;;;;;;6.05;2.70;;;;;;;37.50;5.41;99240.81;5020257;28;20479;-69
2023/04/24 11:09:42;;;;;;;6.78;2.60;;;;;;;39.41;4.72;99237.19;5020616;28;20204;-69
2023/04/24 11:12:13;;;;;;;9.98;2.55;;;;;;;41.10;4.10;99240.03;5020612;28;20055;-68
2023/04/24 11:15:02;;;;;;;9.10;2.40;;;;;;;41.94;3.29;99231.56;4958233;28;20422;-68
2023/04/24 11:17:40;;;;;;;4.88;2.35;;;;;;;41.10;3.95;99244.78;4951766;28;20157;-69
2023/04/24 11:20:11;;;;;;;8.27;2.33;;;;;;;38.28;4.74;99253.34;5000426;28;20484;-69
2023/04/24 11:22:39;;;;;;;10.15;2.97;;;;;;;35.33;5.89;99231.13;5000294;28;20041;-68
2023/04/24 11:25:06;;;;;;;8.43;2.45;;;;;;;33.71;6.75;99232.94;4984080;28;20053;-69
2023/04/24 11:27:41;;;;;;;4.95;2.28;;;;;;;32.51;7.31;99214.84;4982845;28;20047;-69
2023/04/24 11:30:07;;;;;;;5.05;2.50;;;;;;;31.62;8.11;99227.47;4998186;28;20060;-68
2023/04/24 11:32:37;;;;;;;7.53;2.92;;;;;;;30.58;8.51;99209.00;4983373;28;20502;-68
2023/04/24 11:35:05;;;;;;;4.18;2.40;;;;;;;29.88;8.92;99216.25;4982117;28;20054;-68
2023/04/24 11:37:36;;;;;;;10.15;2.75;;;;;;;29.88;9.19;99194.34;4984272;28;20045;-68